Time;durP1;ratioP1;P1;durP2;ratioP2;P2;SDS_P1;SDS_P2;PMS_P1;PMS_P2;Temp;Humidity;BMP_temperature;BMP_pressure;BME280_temperature;BME280_humidity;BME280_pressure;Samples;Min_cycle;Max_cycle;Signal;HPM_P1;HPM_P2
2021/03/15 00:01:06;;;;;;;;;;;;;;;5.57;84.14;101039.19;5095724;28;20112;-40
2021/03/15 00:03:31;;;;;;;7.18;2.90;;;;;;;5.50;85.50;101040.97;5094349;28;19961;-40
2021/03/15 00:05:57;;;;;;;10.27;3.93;;;;;;;5.45;85.43;101029.97;5094998;28;20032;-40
2021/03/15 00:08:23;;;;;;;6.20;3.53;;;;;;;5.43;85.87;101033.69;5093901;28;20030;-40
2021/03/15 00:10:48;;;;;;;6.37;2.97;;;;;;;5.41;85.75;101033.03;5093966;28;20024;-40
2021/03/15 00:13:15;;;;;;;7.23;3.30;;;;;;;5.43;85.51;101028.31;5094668;28;20056;-40
2021/03/15 00:15:41;;;;;;;;;;;;;;;5.51;84.68;101023.84;5094700;28;20040;-41
2021/03/15 00:18:07;;;;;;;6.00;3.08;;;;;;;5.39;86.42;101021.69;5094044;28;19919;-40
2021/03/15 00:20:33;;;;;;;4.90;3.20;;;;;;;5.39;86.16;101019.00;5093808;28;20056;-40
2021/03/15 00:22:58;;;;;;;7.00;3.72;;;;;;;5.28;86.41;101010.66;5093648;28;20456;-40
2021/03/15 00:25:24;;;;;;;8.80;3.75;;;;;;;5.33;86.51;101006.38;5094591;28;20043;-40
2021/03/15 00:27:49;;;;;;;10.73;4.03;;;;;;;5.35;86.77;101001.63;5093982;28;20517;-40
2021/03/15 00:30:16;;;;;;;5.83;3.83;;;;;;;5.37;86.49;101010.34;5094647;28;20509;-40
2021/03/15 00:32:43;;;;;;;5.60;3.53;;;;;;;5.42;87.11;101001.72;5093947;28;20781;-40
2021/03/15 00:35:12;;;;;;;7.53;3.80;;;;;;;5.43;86.60;100992.63;5093799;28;20027;-40
2021/03/15 00:37:39;;;;;;;7.32;3.90;;;;;;;5.53;86.76;100994.97;5093473;28;20027;-40
2021/03/15 00:40:07;;;;;;;7.38;3.63;;;;;;;5.55;86.63;100990.25;5094198;28;20024;-40
2021/03/15 00:42:33;;;;;;;5.85;3.80;;;;;;;5.53;86.83;100984.25;5093562;28;20465;-40
2021/03/15 00:44:59;;;;;;;6.38;3.88;;;;;;;5.62;86.16;100977.72;5094149;28;20035;-40
2021/03/15 00:47:24;;;;;;;7.83;4.73;;;;;;;5.58;86.52;100971.91;5093700;28;20032;-40
2021/03/15 00:49:49;;;;;;;6.43;3.80;;;;;;;5.65;86.37;100977.31;5093787;28;20031;-40
2021/03/15 00:52:15;;;;;;;6.10;4.13;;;;;;;5.65;86.37;100988.03;5093635;28;20032;-40
2021/03/15 00:54:40;;;;;;;7.20;4.17;;;;;;;5.68;86.36;100979.63;5093967;28;20103;-40
2021/03/15 00:57:06;;;;;;;8.73;4.83;;;;;;;5.66;86.33;100973.59;5093577;28;20020;-40
2021/03/15 00:59:31;;;;;;;7.03;3.93;;;;;;;5.75;86.44;100971.59;5093911;28;20105;-40
2021/03/15 01:01:56;;;;;;;9.10;5.20;;;;;;;5.75;86.10;100977.78;5093540;28;20137;-40
2021/03/15 01:04:21;;;;;;;9.90;5.57;;;;;;;5.74;86.25;100962.72;5093632;28;20067;-40
2021/03/15 01:06:47;;;;;;;7.00;6.13;;;;;;;5.71;86.67;100965.81;5093467;28;20468;-40
2021/03/15 01:09:12;;;;;;;9.07;6.65;;;;;;;5.73;86.69;100971.81;5093549;28;20099;-40
2021/03/15 01:11:39;;;;;;;8.13;6.80;;;;;;;5.72;86.09;100980.06;5093279;28;20066;-40
2021/03/15 01:14:05;;;;;;;7.85;6.40;;;;;;;5.67;86.78;100972.59;5093192;28;20254;-40
2021/03/15 01:16:30;;;;;;;8.35;7.05;;;;;;;5.64;86.29;100954.19;5093302;28;20042;-40
2021/03/15 01:18:56;;;;;;;10.73;8.00;;;;;;;5.59;86.57;100952.09;5093736;28;20043;-40
2021/03/15 01:21:22;;;;;;;12.27;8.73;;;;;;;5.63;86.88;100958.75;5095839;28;20129;-40
2021/03/15 01:23:47;;;;;;;9.77;8.57;;;;;;;5.63;86.69;100956.06;5097992;28;20024;-40
2021/03/15 01:26:13;;;;;;;10.38;8.35;;;;;;;5.69;86.77;100957.13;5097171;28;20119;-40
2021/03/15 01:28:38;;;;;;;10.37;8.80;;;;;;;5.67;86.74;100961.88;5097101;28;20039;-40
2021/03/15 01:31:03;;;;;;;10.13;8.57;;;;;;;5.71;87.16;100959.59;5097330;28;20035;-41
2021/03/15 01:33:29;;;;;;;10.37;9.20;;;;;;;5.68;87.27;100950.94;5096982;28;20016;-40
2021/03/15 01:35:54;;;;;;;13.87;10.00;;;;;;;5.66;87.31;100958.34;5097721;28;20035;-40
2021/03/15 01:38:20;;;;;;;12.73;9.67;;;;;;;5.69;87.66;100949.91;5097155;28;20055;-40
2021/03/15 01:40:45;;;;;;;13.65;10.32;;;;;;;5.67;87.46;100943.91;5097732;28;20020;-40
2021/03/15 01:43:11;;;;;;;10.63;9.53;;;;;;;5.75;87.99;100929.50;5097025;28;20031;-40
2021/03/15 01:45:37;;;;;;;10.35;9.30;;;;;;;5.81;88.03;100934.09;5096789;28;20036;-40
2021/03/15 01:48:04;;;;;;;11.68;10.43;;;;;;;5.79;88.11;100941.50;5097012;28;20372;-40
2021/03/15 01:50:30;;;;;;;13.32;10.93;;;;;;;5.79;87.79;100941.50;5097213;28;20024;-40
2021/03/15 01:52:56;;;;;;;12.00;10.57;;;;;;;5.80;87.13;100940.47;5096683;28;20035;-40
2021/03/15 01:55:22;;;;;;;13.50;11.75;;;;;;;5.80;87.39;100942.31;5097078;28;20479;-40
2021/03/15 01:57:48;;;;;;;;;;;;;;;5.92;86.34;100938.94;5097273;28;20372;-40
2021/03/15 02:00:16;;;;;;;12.55;10.93;;;;;;;5.85;86.91;100940.69;5096784;28;19908;-40
2021/03/15 02:02:48;;;;;;;13.82;11.10;;;;;;;5.82;87.38;100938.44;5096660;28;20055;-40
2021/03/15 02:05:13;;;;;;;12.57;11.13;;;;;;;5.88;87.27;100940.31;5096564;28;20046;-40
2021/03/15 02:07:39;;;;;;;12.70;11.50;;;;;;;5.88;87.13;100934.13;5096374;28;20426;-40
2021/03/15 02:10:05;;;;;;;12.77;11.47;;;;;;;5.86;87.09;100931.66;5096941;28;20050;-40
2021/03/15 02:12:55;;;;;;;13.88;11.18;;;;;;;5.87;86.86;100932.47;5096201;28;20040;-40
2021/03/15 02:15:32;;;;;;;12.98;10.52;;;;;;;5.86;86.85;100926.28;5096714;28;20111;-40
2021/03/15 02:18:09;;;;;;;15.02;11.07;;;;;;;5.92;87.08;100925.50;5096410;28;20028;-40
2021/03/15 02:20:50;;;;;;;;;;;;;;;6.02;85.84;100930.53;5097153;28;20039;-40
2021/03/15 02:23:43;;;;;;;11.18;9.38;;;;;;;5.93;86.75;100940.59;5096654;28;19919;-40
2021/03/15 02:26:46;;;;;;;11.23;9.30;;;;;;;5.88;87.05;100945.69;5096292;28;20032;-40
2021/03/15 02:29:39;;;;;;;10.50;9.35;;;;;;;5.85;87.27;100950.63;5095989;28;20061;-40
2021/03/15 02:32:39;;;;;;;10.98;8.18;;;;;;;5.84;87.62;100951.66;5095530;28;20482;-40
2021/03/15 02:35:19;;;;;;;10.07;8.23;;;;;;;5.79;87.53;100954.09;5096033;28;20543;-40
2021/03/15 02:37:54;;;;;;;8.73;7.80;;;;;;;5.78;87.87;100955.13;5096634;28;20023;-40
2021/03/15 02:40:28;;;;;;;7.30;6.55;;;;;;;5.83;88.11;100963.41;5096242;28;20024;-40
2021/03/15 02:42:56;;;;;;;7.05;5.75;;;;;;;5.80;87.95;100956.56;5096279;28;20024;-40
2021/03/15 02:45:24;;;;;;;6.47;5.20;;;;;;;5.78;87.77;100965.84;5096526;28;20032;-40
2021/03/15 02:47:50;;;;;;;5.60;4.35;;;;;;;5.72;87.45;100956.75;5095856;28;20032;-40
2021/03/15 02:50:16;;;;;;;;;;;;;;;5.79;86.83;100957.59;5096306;28;20387;-40
2021/03/15 02:52:48;;;;;;;4.90;4.38;;;;;;;5.74;87.33;100961.91;5095716;28;19915;-40
2021/03/15 02:55:17;;;;;;;5.05;3.80;;;;;;;5.73;87.45;100958.41;5096468;28;20028;-40
2021/03/15 02:57:45;;;;;;;6.50;4.18;;;;;;;5.70;86.79;100966.81;5094619;28;20431;-40
2021/03/15 03:00:12;;;;;;;5.40;3.92;;;;;;;5.67;87.06;100957.31;5094699;28;20031;-40
2021/03/15 03:02:41;;;;;;;5.60;3.33;;;;;;;5.61;87.63;100968.00;5095580;28;20028;-40
2021/03/15 03:05:08;;;;;;;4.20;3.50;;;;;;;5.54;87.71;100959.91;5095782;28;20032;-40
2021/03/15 03:07:37;;;;;;;4.93;3.58;;;;;;;5.58;87.23;100963.03;5095462;28;20430;-40
2021/03/15 03:10:05;;;;;;;4.28;3.47;;;;;;;5.57;87.61;100964.06;5095689;28;20035;-40
2021/03/15 03:12:32;;;;;;;4.18;3.30;;;;;;;5.57;87.08;100974.78;5095192;28;20068;-40
2021/03/15 03:14:58;;;;;;;5.80;3.63;;;;;;;5.56;87.30;100975.78;5095240;28;20043;-40
2021/03/15 03:17:27;;;;;;;4.97;3.58;;;;;;;5.50;87.53;100965.84;5095241;28;20127;-40
2021/03/15 03:19:53;;;;;;;4.88;3.42;;;;;;;5.49;87.00;100977.63;5095272;28;20049;-40
2021/03/15 03:22:20;;;;;;;3.90;3.25;;;;;;;5.53;87.44;100976.22;5094862;28;20031;-40
2021/03/15 03:24:46;;;;;;;;;;;;;;;5.59;86.55;100981.59;5095599;28;20422;-40
2021/03/15 03:27:13;;;;;;;4.15;3.17;;;;;;;5.54;86.61;100986.72;5095348;28;19908;-40
2021/03/15 03:29:39;;;;;;;5.07;3.67;;;;;;;5.54;86.53;100988.59;5095060;28;20024;-40
2021/03/15 03:32:05;;;;;;;3.92;3.33;;;;;;;5.48;86.86;100992.88;5095506;28;20032;-40
2021/03/15 03:34:30;;;;;;;3.45;3.15;;;;;;;5.56;86.81;101003.47;5094995;28;20107;-39
2021/03/15 03:36:56;;;;;;;4.57;3.20;;;;;;;5.54;87.28;101008.19;5094826;28;20119;-40
2021/03/15 03:39:21;;;;;;;4.93;3.50;;;;;;;5.50;87.04;101006.09;5095484;28;20100;-40
2021/03/15 03:41:47;;;;;;;4.90;3.37;;;;;;;5.51;87.57;101015.78;5095306;28;20433;-40
2021/03/15 03:44:12;;;;;;;4.77;2.93;;;;;;;5.51;86.72;101021.16;5094480;28;20075;-40
2021/03/15 03:46:40;;;;;;;6.07;3.50;;;;;;;5.49;87.02;101023.22;5095002;28;20035;-40
2021/03/15 03:49:06;;;;;;;3.58;3.03;;;;;;;5.50;87.16;101022.19;5093479;28;20604;-40
2021/03/15 03:51:58;;;;;;;5.72;3.85;;;;;;;5.49;87.16;101031.25;5094631;28;20049;-40
2021/03/15 03:54:27;;;;;;;5.22;3.20;;;;;;;5.47;87.23;101034.16;5095371;28;20060;-40
2021/03/15 03:57:05;;;;;;;5.75;3.03;;;;;;;5.43;87.47;101039.06;5094131;28;20035;-40
2021/03/15 03:59:31;;;;;;;5.80;3.53;;;;;;;5.48;86.97;101045.69;5095053;28;20088;-40
2021/03/15 04:02:01;;;;;;;5.38;3.30;;;;;;;5.47;86.98;101046.72;5094646;28;20095;-40
2021/03/15 04:04:30;;;;;;;5.53;3.47;;;;;;;5.45;87.29;101046.06;5094407;28;20028;-40
2021/03/15 04:06:56;;;;;;;6.72;3.60;;;;;;;5.45;87.08;101054.13;5094666;28;20464;-40
2021/03/15 04:09:29;;;;;;;5.83;3.53;;;;;;;5.52;86.49;101046.97;5094664;28;20035;-40
2021/03/15 04:11:58;;;;;;;6.97;4.03;;;;;;;5.52;86.54;101052.34;5094846;28;20048;-40
2021/03/15 04:14:29;;;;;;;7.85;3.88;;;;;;;5.50;86.28;101049.84;5094793;28;20081;-40
2021/03/15 04:16:59;;;;;;;7.65;4.60;;;;;;;5.53;86.39;101052.13;5093839;28;20058;-40
2021/03/15 04:19:34;;;;;;;6.78;4.63;;;;;;;5.48;86.52;101051.06;5093796;28;20468;-40
2021/03/15 04:22:05;;;;;;;5.50;4.03;;;;;;;5.54;86.34;101061.84;5093882;28;20031;-40
2021/03/15 04:24:33;;;;;;;5.80;4.38;;;;;;;5.55;86.65;101068.03;5094140;28;20035;-40
2021/03/15 04:27:00;;;;;;;4.90;4.22;;;;;;;5.52;86.04;101069.25;5093966;28;20369;-40
2021/03/15 04:29:27;;;;;;;7.05;5.10;;;;;;;5.52;86.36;101073.81;5094020;28;20537;-40
2021/03/15 04:31:53;;;;;;;8.75;5.72;;;;;;;5.50;86.36;101071.28;5093588;28;20031;-40
2021/03/15 04:34:20;;;;;;;7.28;5.35;;;;;;;5.44;86.74;101080.13;5094204;28;20051;-40
2021/03/15 04:36:45;;;;;;;8.77;6.03;;;;;;;5.43;86.59;101070.41;5093989;28;20024;-40
2021/03/15 04:39:12;;;;;;;10.20;6.37;;;;;;;5.48;86.36;101088.63;5094396;28;20320;-40
2021/03/15 04:41:37;;;;;;;11.82;6.70;;;;;;;5.50;86.65;101086.56;5093803;28;20024;-40
2021/03/15 04:44:04;;;;;;;7.10;6.40;;;;;;;5.50;86.79;101092.75;5094110;28;20362;-40
2021/03/15 04:46:30;;;;;;;10.93;6.68;;;;;;;5.49;86.71;101093.78;5093640;28;20036;-40
2021/03/15 04:48:57;;;;;;;8.80;5.97;;;;;;;5.49;86.79;101103.69;5093992;28;20016;-40
2021/03/15 04:51:23;;;;;;;9.38;5.57;;;;;;;5.54;86.61;101109.31;5093361;28;20483;-40
2021/03/15 04:53:49;;;;;;;8.57;6.40;;;;;;;5.48;87.22;101107.38;5094511;28;20024;-40
2021/03/15 04:56:17;;;;;;;9.82;6.03;;;;;;;5.52;86.66;101111.34;5093421;28;20038;-40
2021/03/15 04:58:49;;;;;;;11.00;6.47;;;;;;;5.52;86.77;101122.91;5093844;28;20417;-40
2021/03/15 05:01:16;;;;;;;9.75;6.10;;;;;;;5.56;86.37;101126.03;5094158;28;20106;-40
2021/03/15 05:03:43;;;;;;;11.70;6.13;;;;;;;5.52;86.53;101127.44;5093499;28;20028;-40
2021/03/15 05:06:11;;;;;;;12.23;6.53;;;;;;;5.55;86.94;101132.41;5093283;28;20089;-40
2021/03/15 05:08:43;;;;;;;9.50;6.05;;;;;;;5.54;87.04;101128.06;5093749;28;20056;-40
2021/03/15 05:11:09;;;;;;;7.80;5.78;;;;;;;5.56;86.44;101131.38;5093159;28;20020;-40
2021/03/15 05:13:38;;;;;;;8.90;6.18;;;;;;;5.49;86.76;101138.56;5091661;28;20058;-40
2021/03/15 05:16:04;;;;;;;7.90;6.30;;;;;;;5.51;86.85;101139.19;5093115;28;20491;-40
2021/03/15 05:18:31;;;;;;;11.60;5.78;;;;;;;5.50;87.13;101142.88;5093343;28;20025;-40
2021/03/15 05:20:56;;;;;;;;;;;;;;;5.64;86.34;101155.41;5093859;28;20032;-40
2021/03/15 05:23:22;;;;;;;11.48;5.57;;;;;;;5.58;86.42;101156.19;5094147;28;19908;-40
2021/03/15 05:25:51;;;;;;;7.67;5.90;;;;;;;5.58;86.40;101156.19;5093099;28;20556;-40
2021/03/15 05:28:18;;;;;;;9.85;5.85;;;;;;;5.59;86.31;101160.53;5092989;28;20762;-40
2021/03/15 05:30:46;;;;;;;9.35;5.80;;;;;;;5.56;86.24;101158.22;5093898;28;20107;-40
2021/03/15 05:33:14;;;;;;;8.68;5.47;;;;;;;5.54;86.10;101161.09;5093207;28;20111;-40
2021/03/15 05:35:42;;;;;;;8.43;5.00;;;;;;;5.53;86.33;101156.75;5093095;28;20457;-40
2021/03/15 05:38:08;;;;;;;8.07;5.45;;;;;;;5.46;86.00;101153.16;5093707;28;20032;-40
2021/03/15 05:40:36;;;;;;;8.35;4.38;;;;;;;5.47;86.18;101162.88;5093445;28;20028;-40
2021/03/15 05:43:01;;;;;;;10.18;4.78;;;;;;;5.45;85.36;101177.50;5093161;28;20032;-40
2021/03/15 05:45:41;;;;;;;7.93;4.53;;;;;;;5.43;85.81;101169.66;5094016;28;20038;-40
2021/03/15 05:48:31;;;;;;;7.50;4.55;;;;;;;5.47;86.58;101178.97;5093639;28;20036;-40
2021/03/15 05:51:33;;;;;;;7.90;4.53;;;;;;;5.45;85.85;101174.81;5093135;28;20020;-40
2021/03/15 05:54:26;;;;;;;10.00;4.80;;;;;;;5.45;85.87;101193.59;5093032;28;20028;-40
2021/03/15 05:57:02;;;;;;;8.63;5.47;;;;;;;5.40;85.76;101189.63;5092966;28;20535;-40
2021/03/15 05:59:51;;;;;;;8.13;4.63;;;;;;;5.36;85.67;101182.97;5093618;28;20028;-40
2021/03/15 06:02:26;;;;;;;8.13;4.63;;;;;;;5.34;85.85;101189.56;5092665;28;20035;-40
2021/03/15 06:05:20;;;;;;;6.63;4.35;;;;;;;5.31;85.66;101190.75;5093050;28;20028;-40
2021/03/15 06:07:50;;;;;;;10.23;4.50;;;;;;;5.30;85.57;101189.09;5094554;28;20111;-40
2021/03/15 06:10:28;;;;;;;10.73;4.25;;;;;;;5.29;85.74;101208.88;5096203;28;20119;-40
2021/03/15 06:13:18;;;;;;;7.85;4.20;;;;;;;5.23;85.80;101198.91;5097570;28;20040;-40
2021/03/15 06:15:46;;;;;;;9.18;4.07;;;;;;;5.24;85.71;101205.94;5096040;28;20128;-40
2021/03/15 06:18:14;;;;;;;9.32;4.40;;;;;;;5.22;85.86;101207.97;5096449;28;20212;-40
2021/03/15 06:20:49;;;;;;;10.60;4.40;;;;;;;5.20;85.88;101210.00;5096671;28;20032;-41
2021/03/15 06:23:17;;;;;;;9.27;4.15;;;;;;;5.16;86.29;101206.84;5096381;28;20032;-40
2021/03/15 06:25:48;;;;;;;9.55;4.85;;;;;;;5.15;86.12;101207.03;5097071;28;20055;-40
2021/03/15 06:28:15;;;;;;;9.30;4.18;;;;;;;5.17;85.98;101215.72;5096779;28;20020;-40
2021/03/15 06:30:42;;;;;;;13.75;4.78;;;;;;;5.17;86.05;101223.75;5096196;28;20035;-40
2021/03/15 06:33:07;;;;;;;9.02;4.70;;;;;;;5.20;85.88;101225.25;5096407;28;20082;-40
2021/03/15 06:35:44;;;;;;;15.03;5.37;;;;;;;5.22;85.99;101226.75;5096653;28;20036;-40
2021/03/15 06:38:10;;;;;;;9.55;4.70;;;;;;;5.24;86.22;101231.91;5095756;28;20746;-40
2021/03/15 06:40:41;;;;;;;9.73;4.55;;;;;;;5.29;86.03;101241.06;5095913;28;20039;-40
2021/03/15 06:43:11;;;;;;;9.88;5.13;;;;;;;5.31;86.30;101233.66;5096198;28;20452;-41
2021/03/15 06:45:36;;;;;;;11.38;5.05;;;;;;;5.36;86.30;101228.56;5096218;28;20028;-40
2021/03/15 06:48:03;;;;;;;14.77;6.03;;;;;;;5.37;86.11;101238.28;5095882;28;20035;-41
2021/03/15 06:50:28;;;;;;;12.32;5.28;;;;;;;5.40;86.03;101240.56;5096602;28;20423;-41
2021/03/15 06:52:57;;;;;;;11.23;5.33;;;;;;;5.45;86.44;101247.22;5095489;28;20024;-41
2021/03/15 06:55:36;;;;;;;12.52;5.50;;;;;;;5.48;86.13;101254.91;5095894;28;20035;-41
2021/03/15 06:58:21;;;;;;;10.20;4.95;;;;;;;5.55;86.00;101261.19;5095594;28;20036;-41
2021/03/15 07:00:48;;;;;;;8.10;5.63;;;;;;;5.57;85.81;101268.03;5095193;28;20402;-41
2021/03/15 07:03:23;;;;;;;10.15;5.88;;;;;;;5.56;86.14;101269.06;5095619;28;20035;-41
2021/03/15 07:05:57;;;;;;;11.68;5.63;;;;;;;5.55;85.74;101270.06;5096136;28;20032;-41
2021/03/15 07:08:23;;;;;;;10.57;5.45;;;;;;;5.55;85.96;101282.66;5095514;28;20039;-41
2021/03/15 07:10:49;;;;;;;10.55;5.68;;;;;;;5.55;86.27;101277.28;5095387;28;20500;-42
2021/03/15 07:13:20;;;;;;;13.20;5.82;;;;;;;5.53;86.24;101288.22;5095887;28;20044;-39
2021/03/15 07:15:49;;;;;;;11.68;5.18;;;;;;;5.53;86.14;101284.69;5095330;28;20032;-40
2021/03/15 07:18:35;;;;;;;8.55;5.20;;;;;;;5.57;86.09;101292.19;5094571;28;20032;-40
2021/03/15 07:21:06;;;;;;;11.73;5.35;;;;;;;5.57;86.49;101299.41;5095295;28;20024;-41
2021/03/15 07:23:57;;;;;;;10.60;5.25;;;;;;;5.61;85.97;101308.72;5095106;28;20028;-40
2021/03/15 07:26:25;;;;;;;8.88;4.47;;;;;;;5.61;85.78;101303.34;5095039;28;20392;-40
2021/03/15 07:28:51;;;;;;;9.13;4.18;;;;;;;5.66;85.93;101308.97;5094686;28;20044;-40
2021/03/15 07:31:19;;;;;;;;;;;;;;;5.76;85.12;101317.59;5095274;28;20369;-41
2021/03/15 07:33:54;;;;;;;12.48;4.22;;;;;;;5.72;85.44;101320.84;5095005;28;19912;-41
2021/03/15 07:36:19;;;;;;;11.20;3.95;;;;;;;5.73;84.87;101323.34;5095447;28;20075;-40
2021/03/15 07:38:45;;;;;;;7.90;3.43;;;;;;;5.78;85.57;101325.47;5094830;28;20503;-40
2021/03/15 07:41:17;;;;;;;12.33;3.80;;;;;;;5.80;84.97;101334.97;5094908;28;20261;-41
2021/03/15 07:43:43;;;;;;;11.10;4.25;;;;;;;5.86;85.39;101339.59;5094543;28;20032;-41
2021/03/15 07:46:23;;;;;;;11.45;3.50;;;;;;;5.93;84.36;101339.72;5095091;28;20046;-40
2021/03/15 07:48:49;;;;;;;11.63;3.38;;;;;;;5.89;84.49;101347.25;5094662;28;20377;-40
2021/03/15 07:51:27;;;;;;;8.35;3.65;;;;;;;5.94;84.63;101346.75;5094614;28;20036;-41
2021/03/15 07:54:02;;;;;;;6.20;2.88;;;;;;;5.99;84.42;101349.69;5094623;28;20020;-40
2021/03/15 07:56:27;;;;;;;12.68;2.92;;;;;;;6.03;83.73;101352.84;5094635;28;20028;-40
2021/03/15 07:58:53;;;;;;;10.33;3.07;;;;;;;6.14;84.11;101361.22;5094176;28;20361;-41
2021/03/15 08:01:19;;;;;;;12.48;2.72;;;;;;;6.16;83.27;101358.38;5094969;28;20016;-41
2021/03/15 08:03:45;;;;;;;10.95;2.70;;;;;;;6.15;83.14;101364.75;5093050;28;20052;-41
2021/03/15 08:06:12;;;;;;;7.00;2.40;;;;;;;6.16;83.40;101369.09;5095158;28;20063;-41
2021/03/15 08:08:41;;;;;;;9.18;2.70;;;;;;;6.18;83.05;101375.09;5094197;28;20132;-41
2021/03/15 08:11:12;;;;;;;11.25;2.53;;;;;;;6.24;83.46;101379.72;5094479;28;20073;-41
2021/03/15 08:13:49;;;;;;;12.95;2.78;;;;;;;6.28;82.75;101374.81;5094833;28;20048;-41
2021/03/15 08:16:22;;;;;;;13.82;3.30;;;;;;;6.35;82.46;101381.94;5093932;28;20389;-41
2021/03/15 08:18:49;;;;;;;15.13;3.42;;;;;;;6.37;82.25;101377.19;5094069;28;20038;-41
2021/03/15 08:21:25;;;;;;;12.05;2.45;;;;;;;6.43;81.92;101380.97;5094733;28;20040;-41
2021/03/15 08:23:52;;;;;;;11.13;2.85;;;;;;;6.56;82.12;101374.91;5094470;28;20055;-41
2021/03/15 08:26:18;;;;;;;11.50;2.92;;;;;;;6.68;81.20;101382.25;5094130;28;20032;-41
2021/03/15 08:28:44;;;;;;;9.18;2.78;;;;;;;6.85;81.26;101387.38;5093718;28;20031;-41
2021/03/15 08:31:21;;;;;;;11.80;2.95;;;;;;;6.94;81.64;101376.28;5094145;28;20028;-41
2021/03/15 08:33:49;;;;;;;10.60;2.67;;;;;;;7.00;80.03;101390.00;5093655;28;20560;-41
2021/03/15 08:36:15;;;;;;;13.07;2.55;;;;;;;7.01;79.86;101386.25;5093611;28;20492;-41
2021/03/15 08:38:41;;;;;;;13.75;2.88;;;;;;;7.02;78.83;101382.53;5093663;28;20067;-41
2021/03/15 08:41:07;;;;;;;16.92;2.50;;;;;;;6.96;77.75;101386.84;5094358;28;20020;-41
2021/03/15 08:43:45;;;;;;;13.10;2.60;;;;;;;6.97;78.28;101383.94;5093514;28;20074;-41
2021/03/15 08:46:17;;;;;;;13.55;2.30;;;;;;;7.04;77.77;101391.25;5093514;28;20020;-41
2021/03/15 08:48:45;;;;;;;12.43;2.30;;;;;;;7.12;78.60;101393.78;5093715;28;20111;-41
2021/03/15 08:51:13;;;;;;;13.65;2.42;;;;;;;7.13;76.79;101395.47;5093776;28;20036;-41
2021/03/15 08:53:42;;;;;;;12.15;2.33;;;;;;;7.19;75.36;101383.94;5093646;28;20024;-41
2021/03/15 08:56:19;;;;;;;12.30;2.72;;;;;;;7.23;75.22;101386.03;5094154;28;20038;-41
2021/03/15 08:58:46;;;;;;;9.77;2.30;;;;;;;7.24;76.08;101386.88;5093964;28;20089;-41
2021/03/15 09:01:19;;;;;;;15.32;2.38;;;;;;;7.17;75.53;101392.22;5093631;28;20043;-41
2021/03/15 09:03:47;;;;;;;17.95;3.03;;;;;;;7.09;75.63;101402.28;5093546;28;20111;-41
2021/03/15 09:06:12;;;;;;;9.90;1.98;;;;;;;6.97;77.22;101412.69;5093337;28;20039;-41
2021/03/15 09:09:13;;;;;;;11.20;2.80;;;;;;;6.86;77.81;101424.81;5093795;28;20024;-41
2021/03/15 09:11:38;;;;;;;6.82;1.95;;;;;;;6.68;78.20;101429.78;5094175;28;20035;-41
2021/03/15 09:14:15;;;;;;;8.77;1.80;;;;;;;6.50;77.20;101418.66;5094700;28;20048;-41
2021/03/15 09:16:43;;;;;;;7.25;1.55;;;;;;;6.51;78.02;101423.84;5094253;28;20388;-41
2021/03/15 09:19:35;;;;;;;6.15;1.20;;;;;;;6.50;76.74;101421.34;5093662;28;20522;-41
2021/03/15 09:22:04;;;;;;;3.67;1.13;;;;;;;6.52;77.33;101424.66;5093207;28;20028;-41
2021/03/15 09:24:44;;;;;;;4.97;1.30;;;;;;;6.70;76.93;101419.69;5093442;28;20457;-41
2021/03/15 09:27:28;;;;;;;8.43;1.50;;;;;;;6.91;77.23;101418.84;5093907;28;20016;-41
2021/03/15 09:30:16;;;;;;;6.03;1.52;;;;;;;7.10;75.22;101426.28;5094168;28;20392;-41
2021/03/15 09:32:47;;;;;;;8.13;1.83;;;;;;;7.27;74.55;101424.16;5093873;28;20103;-41
2021/03/15 09:35:20;;;;;;;7.28;1.65;;;;;;;7.44;74.68;101420.13;5092952;28;20070;-41
2021/03/15 09:38:00;;;;;;;8.73;2.00;;;;;;;7.59;74.80;101425.41;5093552;28;20380;-41
2021/03/15 09:40:36;;;;;;;8.68;2.40;;;;;;;7.79;72.76;101425.50;5093268;28;20422;-41
2021/03/15 09:43:02;;;;;;;6.88;1.50;;;;;;;7.90;71.97;101437.59;5097072;28;20031;-41
2021/03/15 09:45:39;;;;;;;8.95;1.83;;;;;;;7.68;71.73;101436.84;5097488;28;20164;-41
2021/03/15 09:48:18;;;;;;;;;;;;;;;7.70;72.30;101445.53;5097855;28;20115;-41
2021/03/15 09:50:50;;;;;;;6.63;1.50;;;;;;;7.37;73.69;101448.84;5097173;28;19915;-41
2021/03/15 09:53:16;;;;;;;7.70;2.17;;;;;;;7.45;73.91;101456.75;5096995;28;20024;-41
2021/03/15 09:55:42;;;;;;;5.10;1.30;;;;;;;7.54;72.73;101451.25;5097414;28;20444;-41
2021/03/15 09:58:09;;;;;;;8.65;1.55;;;;;;;7.58;71.92;101457.91;5096860;28;20032;-41
2021/03/15 10:00:35;;;;;;;4.88;1.15;;;;;;;7.66;72.92;101453.22;5096559;28;20024;-41
2021/03/15 10:03:02;;;;;;;6.05;1.33;;;;;;;7.72;71.96;101448.88;5096776;28;20028;-41
2021/03/15 10:05:27;;;;;;;;;;;;;;;7.94;72.71;101457.72;5097275;28;20035;-41
2021/03/15 10:07:52;;;;;;;6.40;1.52;;;;;;;7.97;71.02;101463.53;5097043;28;19908;-41
2021/03/15 10:10:21;;;;;;;7.63;1.50;;;;;;;8.07;69.79;101463.19;5096692;28;20024;-41
2021/03/15 10:12:59;;;;;;;7.18;1.83;;;;;;;8.17;70.11;101462.81;5096700;28;20044;-42
2021/03/15 10:15:24;;;;;;;5.20;1.65;;;;;;;8.20;69.16;101460.56;5096556;28;20044;-41
2021/03/15 10:17:50;;;;;;;6.33;1.63;;;;;;;8.31;68.77;101463.72;5096324;28;20031;-41
2021/03/15 10:20:26;;;;;;;6.70;1.90;;;;;;;8.30;70.06;101464.75;5096854;28;20027;-41
2021/03/15 10:22:53;;;;;;;5.68;1.63;;;;;;;8.32;67.97;101463.50;5096206;28;20373;-41
2021/03/15 10:25:19;;;;;;;8.32;2.08;;;;;;;8.40;68.33;101454.44;5096934;28;20117;-42
2021/03/15 10:27:52;;;;;;;9.95;1.88;;;;;;;8.49;66.74;101470.25;5096603;28;20119;-41
2021/03/15 10:30:18;;;;;;;10.75;2.13;;;;;;;8.58;66.51;101461.94;5097107;28;20435;-41
2021/03/15 10:32:43;;;;;;;6.13;1.73;;;;;;;8.57;66.96;101454.91;5095945;28;20067;-41
2021/03/15 10:35:09;;;;;;;8.87;2.10;;;;;;;8.46;64.45;101462.56;5096534;28;20103;-41
2021/03/15 10:37:37;;;;;;;9.45;1.75;;;;;;;8.40;64.73;101457.16;5095269;28;20460;-41
2021/03/15 10:40:06;;;;;;;6.82;1.90;;;;;;;8.47;63.76;101461.50;5095891;28;20100;-42
2021/03/15 10:42:34;;;;;;;11.68;2.63;;;;;;;8.58;62.94;101472.75;5096119;28;20028;-41
2021/03/15 10:45:00;;;;;;;9.55;1.63;;;;;;;8.73;64.08;101478.78;5096369;28;20077;-41
2021/03/15 10:47:28;;;;;;;11.30;2.63;;;;;;;8.80;63.57;101463.47;5095712;28;20028;-41
2021/03/15 10:49:53;;;;;;;7.22;1.83;;;;;;;8.71;61.54;101479.00;5095664;28;20077;-41
2021/03/15 10:52:33;;;;;;;5.57;1.27;;;;;;;8.57;61.47;101490.78;5095951;28;20120;-41
2021/03/15 10:55:21;;;;;;;7.00;1.88;;;;;;;8.53;61.20;101486.81;5095848;28;20362;-41
2021/03/15 10:58:09;;;;;;;6.13;1.50;;;;;;;8.55;60.80;101492.03;5095794;28;20099;-41
2021/03/15 11:00:41;;;;;;;7.10;1.73;;;;;;;8.69;60.30;101485.66;5096250;28;20115;-41
2021/03/15 11:03:08;;;;;;;6.18;1.35;;;;;;;8.75;58.05;101492.91;5096130;28;20028;-41
2021/03/15 11:05:35;;;;;;;7.10;1.48;;;;;;;8.66;58.35;101497.66;5096235;28;20059;-41
2021/03/15 11:08:01;;;;;;;7.85;1.55;;;;;;;8.49;60.20;101507.97;5095628;28;20032;-41
2021/03/15 11:10:28;;;;;;;8.80;1.88;;;;;;;8.39;64.32;101503.97;5095831;28;20491;-41
2021/03/15 11:13:00;;;;;;;6.50;1.52;;;;;;;8.33;65.10;101499.34;5095588;28;20455;-42
2021/03/15 11:15:38;;;;;;;10.07;2.15;;;;;;;8.32;63.60;101503.09;5095379;28;20040;-42
2021/03/15 11:18:19;;;;;;;9.00;1.70;;;;;;;8.57;63.78;101504.25;5096183;28;20036;-42
2021/03/15 11:20:49;;;;;;;10.35;1.83;;;;;;;8.81;61.95;101499.38;5096261;28;20036;-42
2021/03/15 11:23:32;;;;;;;7.10;1.75;;;;;;;9.17;62.07;101494.44;5095698;28;20123;-40
2021/03/15 11:26:03;;;;;;;7.05;1.45;;;;;;;9.13;60.25;101495.91;5095255;28;20045;-40
2021/03/15 11:28:34;;;;;;;7.63;2.08;;;;;;;8.92;60.52;101502.28;5095446;28;20024;-40
2021/03/15 11:31:00;;;;;;;8.68;2.38;;;;;;;8.82;61.35;101515.34;5095093;28;20039;-41
2021/03/15 11:33:28;;;;;;;9.52;1.92;;;;;;;8.99;59.59;101505.03;5094797;28;20050;-41
2021/03/15 11:35:53;;;;;;;11.90;2.05;;;;;;;9.23;58.25;101511.72;5095225;28;20437;-41
2021/03/15 11:38:23;;;;;;;4.40;1.47;;;;;;;9.32;57.14;101523.09;5094973;28;20028;-41
2021/03/15 11:40:49;;;;;;;8.80;2.13;;;;;;;9.07;56.16;101522.88;5095287;28;20051;-41
2021/03/15 11:43:15;;;;;;;6.70;1.40;;;;;;;8.87;55.83;101520.94;5094908;28;20418;-41
2021/03/15 11:45:40;;;;;;;9.37;1.63;;;;;;;8.74;56.78;101524.44;5094676;28;20035;-41